sensor_id;sensor_type;location;lat;lon;timestamp;pressure;altitude;pressure_sealevel;temperature;humidity
6567;BME280;3317;43.994;22.878;2023-01-28T00:00:54;100677.66;;;3.21;83.66
6567;BME280;3317;43.994;22.878;2023-01-28T00:03:22;100683.00;;;3.21;83.96
6567;BME280;3317;43.994;22.878;2023-01-28T00:05:49;100689.31;;;3.20;84.05
6567;BME280;3317;43.994;22.878;2023-01-28T00:08:17;100690.19;;;3.21;84.20
6567;BME280;3317;43.994;22.878;2023-01-28T00:10:44;100692.00;;;3.20;84.11
6567;BME280;3317;43.994;22.878;2023-01-28T00:13:12;100699.06;;;3.21;84.27
6567;BME280;3317;43.994;22.878;2023-01-28T00:15:40;100698.09;;;3.22;83.91
6567;BME280;3317;43.994;22.878;2023-01-28T00:18:07;100696.41;;;3.21;83.75
6567;BME280;3317;43.994;22.878;2023-01-28T00:20:35;100700.78;;;3.22;83.70
6567;BME280;3317;43.994;22.878;2023-01-28T00:23:02;100711.50;;;3.22;83.89
6567;BME280;3317;43.994;22.878;2023-01-28T00:25:30;100696.53;;;3.20;83.77
6567;BME280;3317;43.994;22.878;2023-01-28T00:27:57;100711.50;;;3.22;83.05
6567;BME280;3317;43.994;22.878;2023-01-28T00:30:24;100705.41;;;3.20;82.94
6567;BME280;3317;43.994;22.878;2023-01-28T00:32:52;100710.75;;;3.20;82.66
6567;BME280;3317;43.994;22.878;2023-01-28T00:35:19;100689.22;;;3.09;82.53
6567;BME280;3317;43.994;22.878;2023-01-28T00:37:48;100718.03;;;3.18;82.84
6567;BME280;3317;43.994;22.878;2023-01-28T00:40:15;100712.69;;;3.18;83.21
6567;BME280;3317;43.994;22.878;2023-01-28T00:42:42;100710.00;;;3.18;83.15
6567;BME280;3317;43.994;22.878;2023-01-28T00:45:09;100720.72;;;3.18;83.27
6567;BME280;3317;43.994;22.878;2023-01-28T00:47:36;100719.88;;;3.18;83.53
6567;BME280;3317;43.994;22.878;2023-01-28T00:50:04;100716.25;;;3.19;83.51
6567;BME280;3317;43.994;22.878;2023-01-28T00:52:30;100722.66;;;3.16;83.50
6567;BME280;3317;43.994;22.878;2023-01-28T00:54:59;100727.78;;;3.19;83.17
6567;BME280;3317;43.994;22.878;2023-01-28T00:57:26;100726.16;;;3.17;82.95
6567;BME280;3317;43.994;22.878;2023-01-28T00:59:53;100726.81;;;3.20;82.93
6567;BME280;3317;43.994;22.878;2023-01-28T01:02:19;100734.03;;;3.20;82.93
6567;BME280;3317;43.994;22.878;2023-01-28T01:04:46;100729.50;;;3.20;83.23
6567;BME280;3317;43.994;22.878;2023-01-28T01:07:25;100725.13;;;3.19;83.13
6567;BME280;3317;43.994;22.878;2023-01-28T01:10:00;100733.16;;;3.19;82.82
6567;BME280;3317;43.994;22.878;2023-01-28T01:12:28;100728.75;;;3.18;83.07
6567;BME280;3317;43.994;22.878;2023-01-28T01:14:55;100725.25;;;3.18;83.23
6567;BME280;3317;43.994;22.878;2023-01-28T01:17:22;100724.28;;;3.19;83.87
6567;BME280;3317;43.994;22.878;2023-01-28T01:19:48;100728.22;;;3.13;83.92
6567;BME280;3317;43.994;22.878;2023-01-28T01:22:15;100736.78;;;3.18;83.73
6567;BME280;3317;43.994;22.878;2023-01-28T01:24:42;100733.16;;;3.19;83.78
6567;BME280;3317;43.994;22.878;2023-01-28T01:27:10;100740.44;;;3.17;83.90
6567;BME280;3317;43.994;22.878;2023-01-28T01:29:37;100744.09;;;3.16;83.97
6567;BME280;3317;43.994;22.878;2023-01-28T01:32:04;100744.09;;;3.16;84.04
6567;BME280;3317;43.994;22.878;2023-01-28T01:34:31;100744.28;;;3.13;83.86
6567;BME280;3317;43.994;22.878;2023-01-28T01:36:58;100751.38;;;3.14;83.94
6567;BME280;3317;43.994;22.878;2023-01-28T01:39:25;100749.66;;;3.13;84.13
6567;BME280;3317;43.994;22.878;2023-01-28T01:41:52;100740.66;;;3.14;83.82
6567;BME280;3317;43.994;22.878;2023-01-28T01:44:56;100742.59;;;3.12;83.99
6567;BME280;3317;43.994;22.878;2023-01-28T01:47:25;100724.03;;;2.96;83.85
6567;BME280;3317;43.994;22.878;2023-01-28T01:49:54;100739.13;;;3.10;83.80
6567;BME280;3317;43.994;22.878;2023-01-28T01:52:26;100745.66;;;3.06;83.60
6567;BME280;3317;43.994;22.878;2023-01-28T01:54:56;100745.56;;;3.07;83.70
6567;BME280;3317;43.994;22.878;2023-01-28T01:57:27;100746.53;;;3.06;83.28
6567;BME280;3317;43.994;22.878;2023-01-28T01:59:58;100724.34;;;2.91;83.45
6567;BME280;3317;43.994;22.878;2023-01-28T02:02:32;100758.84;;;3.09;83.03
6567;BME280;3317;43.994;22.878;2023-01-28T02:05:02;100739.78;;;3.01;82.79
6567;BME280;3317;43.994;22.878;2023-01-28T02:07:29;100756.59;;;3.03;82.69
6567;BME280;3317;43.994;22.878;2023-01-28T02:09:56;100754.88;;;3.02;82.48
6567;BME280;3317;43.994;22.878;2023-01-28T02:12:26;100752.28;;;3.00;82.49
6567;BME280;3317;43.994;22.878;2023-01-28T02:14:59;100758.53;;;3.01;82.46
6567;BME280;3317;43.994;22.878;2023-01-28T02:17:28;100764.72;;;3.01;82.48
6567;BME280;3317;43.994;22.878;2023-01-28T02:19:57;100762.03;;;3.01;82.58
6567;BME280;3317;43.994;22.878;2023-01-28T02:22:44;100758.53;;;3.01;82.81
6567;BME280;3317;43.994;22.878;2023-01-28T02:28:22;100767.31;;;3.03;82.00
6567;BME280;3317;43.994;22.878;2023-01-28T02:30:56;100764.63;;;3.03;82.11
6567;BME280;3317;43.994;22.878;2023-01-28T02:33:29;100751.97;;;2.92;82.16
6567;BME280;3317;43.994;22.878;2023-01-28T02:36:04;100759.50;;;3.00;81.73
6567;BME280;3317;43.994;22.878;2023-01-28T02:38:39;100759.50;;;3.00;81.97
6567;BME280;3317;43.994;22.878;2023-01-28T02:41:12;100755.09;;;2.99;81.94
6567;BME280;3317;43.994;22.878;2023-01-28T02:43:44;100757.13;;;2.95;81.77
6567;BME280;3317;43.994;22.878;2023-01-28T02:46:20;100763.13;;;2.99;81.39
6567;BME280;3317;43.994;22.878;2023-01-28T02:49:07;100760.53;;;2.97;81.50
6567;BME280;3317;43.994;22.878;2023-01-28T02:51:44;100765.03;;;2.96;81.34
6567;BME280;3317;43.994;22.878;2023-01-28T02:54:22;100762.47;;;2.95;81.42
6567;BME280;3317;43.994;22.878;2023-01-28T02:56:59;100763.44;;;2.94;81.53
6567;BME280;3317;43.994;22.878;2023-01-28T02:59:35;100761.72;;;2.93;81.25
6567;BME280;3317;43.994;22.878;2023-01-28T03:02:14;100772.53;;;2.91;80.89
6567;BME280;3317;43.994;22.878;2023-01-28T03:04:49;100765.25;;;2.93;80.80
6567;BME280;3317;43.994;22.878;2023-01-28T03:07:22;100772.53;;;2.91;80.80
6567;BME280;3317;43.994;22.878;2023-01-28T03:09:52;100770.59;;;2.93;80.75
6567;BME280;3317;43.994;22.878;2023-01-28T03:12:25;100766.19;;;2.92;80.50
6567;BME280;3317;43.994;22.878;2023-01-28T03:15:15;100775.72;;;2.96;80.50
6567;BME280;3317;43.994;22.878;2023-01-28T03:18:03;100774.03;;;2.95;80.36
6567;BME280;3317;43.994;22.878;2023-01-28T03:20:52;100772.31;;;2.94;80.49
6567;BME280;3317;43.994;22.878;2023-01-28T03:23:41;100768.03;;;2.92;80.31
6567;BME280;3317;43.994;22.878;2023-01-28T03:26:30;100786.78;;;2.92;80.23
6567;BME280;3317;43.994;22.878;2023-01-28T03:29:19;100776.91;;;2.92;80.08
6567;BME280;3317;43.994;22.878;2023-01-28T03:32:06;100777.00;;;2.91;80.32
6567;BME280;3317;43.994;22.878;2023-01-28T03:34:51;100777.88;;;2.91;80.23
6567;BME280;3317;43.994;22.878;2023-01-28T03:37:36;100777.66;;;2.94;80.04
6567;BME280;3317;43.994;22.878;2023-01-28T03:40:04;100771.88;;;2.88;80.14
6567;BME280;3317;43.994;22.878;2023-01-28T03:42:32;100776.81;;;2.94;79.79
6567;BME280;3317;43.994;22.878;2023-01-28T03:44:59;100780.47;;;2.93;79.86
6567;BME280;3317;43.994;22.878;2023-01-28T03:47:31;100790.22;;;2.94;79.77
6567;BME280;3317;43.994;22.878;2023-01-28T03:49:58;100788.16;;;2.98;79.64
6567;BME280;3317;43.994;22.878;2023-01-28T03:52:27;100786.25;;;3.00;79.45
6567;BME280;3317;43.994;22.878;2023-01-28T03:54:54;100789.91;;;2.99;79.65
6567;BME280;3317;43.994;22.878;2023-01-28T03:57:23;100790.75;;;2.99;79.76
6567;BME280;3317;43.994;22.878;2023-01-28T03:59:50;100773.47;;;2.90;79.40
6567;BME280;3317;43.994;22.878;2023-01-28T04:02:19;100793.50;;;2.98;79.42
6567;BME280;3317;43.994;22.878;2023-01-28T04:04:47;100796.31;;;2.96;79.17
6567;BME280;3317;43.994;22.878;2023-01-28T04:07:15;100792.75;;;2.95;79.17
6567;BME280;3317;43.994;22.878;2023-01-28T04:09:42;100800.78;;;2.95;78.86
6567;BME280;3317;43.994;22.878;2023-01-28T04:12:09;100807.88;;;2.96;78.72
6567;BME280;3317;43.994;22.878;2023-01-28T04:14:36;100814.94;;;2.98;78.87
6567;BME280;3317;43.994;22.878;2023-01-28T04:17:04;100807.69;;;3.00;78.78
6567;BME280;3317;43.994;22.878;2023-01-28T04:19:35;100812.16;;;2.99;78.92
6567;BME280;3317;43.994;22.878;2023-01-28T04:22:06;100792.22;;;2.90;78.97
6567;BME280;3317;43.994;22.878;2023-01-28T04:24:33;100817.53;;;2.99;79.14
6567;BME280;3317;43.994;22.878;2023-01-28T04:27:00;100821.69;;;3.03;78.90
6567;BME280;3317;43.994;22.878;2023-01-28T04:29:27;100829.72;;;3.03;79.01
6567;BME280;3317;43.994;22.878;2023-01-28T04:31:54;100825.25;;;3.04;78.65
6567;BME280;3317;43.994;22.878;2023-01-28T04:34:21;100823.53;;;3.03;78.59
6567;BME280;3317;43.994;22.878;2023-01-28T04:36:48;100831.66;;;3.01;78.56
6567;BME280;3317;43.994;22.878;2023-01-28T04:39:16;100831.78;;;3.00;78.22
6567;BME280;3317;43.994;22.878;2023-01-28T04:41:43;100835.31;;;3.00;78.07
6567;BME280;3317;43.994;22.878;2023-01-28T04:44:10;100838.94;;;2.99;77.77
6567;BME280;3317;43.994;22.878;2023-01-28T04:46:38;100838.09;;;2.99;77.87
6567;BME280;3317;43.994;22.878;2023-01-28T04:49:04;100852.22;;;3.01;77.65
6567;BME280;3317;43.994;22.878;2023-01-28T04:51:31;100849.56;;;3.01;78.05
6567;BME280;3317;43.994;22.878;2023-01-28T04:53:58;100853.94;;;3.02;77.93
6567;BME280;3317;43.994;22.878;2023-01-28T04:56:26;100853.81;;;3.03;78.10
6567;BME280;3317;43.994;22.878;2023-01-28T04:58:53;100857.28;;;3.05;78.03
6567;BME280;3317;43.994;22.878;2023-01-28T05:01:20;100859.00;;;3.06;78.24
6567;BME280;3317;43.994;22.878;2023-01-28T05:03:47;100847.31;;;3.07;77.95
6567;BME280;3317;43.994;22.878;2023-01-28T05:06:14;100858.88;;;3.08;78.07
6567;BME280;3317;43.994;22.878;2023-01-28T05:08:41;100857.47;;;3.02;78.32
6567;BME280;3317;43.994;22.878;2023-01-28T05:11:08;100859.31;;;3.02;77.98
6567;BME280;3317;43.994;22.878;2023-01-28T05:13:36;100855.88;;;3.00;77.84
6567;BME280;3317;43.994;22.878;2023-01-28T05:16:03;100858.56;;;3.00;77.66
6567;BME280;3317;43.994;22.878;2023-01-28T05:18:31;100863.13;;;2.98;77.61
6567;BME280;3317;43.994;22.878;2023-01-28T05:20:57;100864.00;;;2.98;77.20
6567;BME280;3317;43.994;22.878;2023-01-28T05:23:24;100862.28;;;2.97;77.54
6567;BME280;3317;43.994;22.878;2023-01-28T05:25:51;100868.47;;;2.98;77.18
6567;BME280;3317;43.994;22.878;2023-01-28T05:28:18;100863.03;;;2.99;76.95
6567;BME280;3317;43.994;22.878;2023-01-28T05:30:46;100862.38;;;2.95;76.96
6567;BME280;3317;43.994;22.878;2023-01-28T05:33:13;100871.50;;;2.93;77.03
6567;BME280;3317;43.994;22.878;2023-01-28T05:35:41;100865.47;;;2.89;77.03
6567;BME280;3317;43.994;22.878;2023-01-28T05:38:08;100863.63;;;2.90;76.90
6567;BME280;3317;43.994;22.878;2023-01-28T05:40:34;100862.50;;;2.94;76.56
6567;BME280;3317;43.994;22.878;2023-01-28T05:43:01;100868.69;;;2.94;76.89
6567;BME280;3317;43.994;22.878;2023-01-28T05:45:28;100875.00;;;2.93;76.80
6567;BME280;3317;43.994;22.878;2023-01-28T05:47:56;100880.34;;;2.93;76.80
6567;BME280;3317;43.994;22.878;2023-01-28T05:50:23;100882.06;;;2.94;76.90
6567;BME280;3317;43.994;22.878;2023-01-28T05:52:50;100883.78;;;2.95;76.88
6567;BME280;3317;43.994;22.878;2023-01-28T05:55:17;100880.28;;;2.95;77.21
6567;BME280;3317;43.994;22.878;2023-01-28T05:57:44;100888.31;;;2.95;76.84
6567;BME280;3317;43.994;22.878;2023-01-28T06:00:12;100890.84;;;2.96;76.87
6567;BME280;3317;43.994;22.878;2023-01-28T06:02:40;100891.66;;;2.99;76.78
6567;BME280;3317;43.994;22.878;2023-01-28T06:05:09;100890.69;;;3.00;76.87
6567;BME280;3317;43.994;22.878;2023-01-28T06:07:36;100888.84;;;3.00;77.36
6567;BME280;3317;43.994;22.878;2023-01-28T06:10:04;100895.06;;;3.01;77.28
6567;BME280;3317;43.994;22.878;2023-01-28T06:12:31;100898.72;;;3.00;77.30
6567;BME280;3317;43.994;22.878;2023-01-28T06:14:57;100902.16;;;3.02;77.78
6567;BME280;3317;43.994;22.878;2023-01-28T06:17:24;100903.00;;;3.02;77.57
6567;BME280;3317;43.994;22.878;2023-01-28T06:19:51;100909.22;;;3.03;78.07
6567;BME280;3317;43.994;22.878;2023-01-28T06:22:20;100908.34;;;3.02;77.83
6567;BME280;3317;43.994;22.878;2023-01-28T06:24:47;100906.75;;;3.00;78.32
6567;BME280;3317;43.994;22.878;2023-01-28T06:27:13;100922.69;;;3.01;78.30
6567;BME280;3317;43.994;22.878;2023-01-28T06:29:40;100899.97;;;2.94;78.29
6567;BME280;3317;43.994;22.878;2023-01-28T06:32:07;100916.50;;;3.01;78.24
6567;BME280;3317;43.994;22.878;2023-01-28T06:34:34;100918.41;;;2.99;78.09
6567;BME280;3317;43.994;22.878;2023-01-28T06:37:01;100921.09;;;2.99;78.35
6567;BME280;3317;43.994;22.878;2023-01-28T06:39:30;100916.66;;;2.98;77.82
6567;BME280;3317;43.994;22.878;2023-01-28T06:41:58;100903.78;;;2.90;78.07
6567;BME280;3317;43.994;22.878;2023-01-28T06:44:25;100923.88;;;2.97;77.77
6567;BME280;3317;43.994;22.878;2023-01-28T06:46:52;100929.31;;;2.95;77.80
6567;BME280;3317;43.994;22.878;2023-01-28T06:49:19;100924.25;;;2.91;77.59
6567;BME280;3317;43.994;22.878;2023-01-28T06:51:46;100927.78;;;2.91;77.53
6567;BME280;3317;43.994;22.878;2023-01-28T06:54:13;100929.50;;;2.92;77.48
6567;BME280;3317;43.994;22.878;2023-01-28T06:56:41;100929.59;;;2.91;77.66
6567;BME280;3317;43.994;22.878;2023-01-28T06:59:08;100936.88;;;2.89;77.56
6567;BME280;3317;43.994;22.878;2023-01-28T07:01:35;100944.91;;;2.89;77.57
6567;BME280;3317;43.994;22.878;2023-01-28T07:04:02;100944.81;;;2.90;77.44
6567;BME280;3317;43.994;22.878;2023-01-28T07:06:29;100949.41;;;2.88;77.86
6567;BME280;3317;43.994;22.878;2023-01-28T07:08:56;100946.63;;;2.90;77.90
6567;BME280;3317;43.994;22.878;2023-01-28T07:11:23;100958.00;;;2.93;77.83
6567;BME280;3317;43.994;22.878;2023-01-28T07:13:51;100951.88;;;2.91;77.97
6567;BME280;3317;43.994;22.878;2023-01-28T07:16:18;100881.53;;;2.47;77.75
6567;BME280;3317;43.994;22.878;2023-01-28T07:18:45;100959.91;;;2.91;77.72
6567;BME280;3317;43.994;22.878;2023-01-28T07:21:12;100956.28;;;2.92;77.79
6567;BME280;3317;43.994;22.878;2023-01-28T07:23:39;100955.53;;;2.90;77.83
6567;BME280;3317;43.994;22.878;2023-01-28T07:26:06;100962.50;;;2.93;77.87
6567;BME280;3317;43.994;22.878;2023-01-28T07:28:33;100959.91;;;2.91;78.05
6567;BME280;3317;43.994;22.878;2023-01-28T07:31:01;100955.44;;;2.92;77.88
6567;BME280;3317;43.994;22.878;2023-01-28T07:33:28;100966.78;;;2.95;78.10
6567;BME280;3317;43.994;22.878;2023-01-28T07:35:55;100966.78;;;2.95;78.09
6567;BME280;3317;43.994;22.878;2023-01-28T07:38:22;100953.44;;;2.81;77.94
6567;BME280;3317;43.994;22.878;2023-01-28T07:40:49;100975.78;;;2.94;78.37
6567;BME280;3317;43.994;22.878;2023-01-28T07:43:15;100974.94;;;2.94;78.30
6567;BME280;3317;43.994;22.878;2023-01-28T07:45:42;100983.06;;;2.92;77.95
6567;BME280;3317;43.994;22.878;2023-01-28T07:48:11;100981.34;;;2.91;78.11
6567;BME280;3317;43.994;22.878;2023-01-28T07:50:39;100972.56;;;2.89;78.01
6567;BME280;3317;43.994;22.878;2023-01-28T07:53:08;100968.66;;;2.80;77.97
6567;BME280;3317;43.994;22.878;2023-01-28T07:55:36;100986.69;;;2.91;77.98
6567;BME280;3317;43.994;22.878;2023-01-28T07:58:04;100982.38;;;2.89;78.30
6567;BME280;3317;43.994;22.878;2023-01-28T08:00:33;100976.19;;;2.88;78.04
6567;BME280;3317;43.994;22.878;2023-01-28T08:03:04;100990.34;;;2.90;78.47
6567;BME280;3317;43.994;22.878;2023-01-28T08:05:37;100995.00;;;2.87;78.45
6567;BME280;3317;43.994;22.878;2023-01-28T08:08:06;100983.75;;;2.81;78.38
6567;BME280;3317;43.994;22.878;2023-01-28T08:10:33;100988.63;;;2.89;78.57
6567;BME280;3317;43.994;22.878;2023-01-28T08:13:00;100993.75;;;2.92;78.60
6567;BME280;3317;43.994;22.878;2023-01-28T08:15:28;100994.72;;;2.91;78.29
6567;BME280;3317;43.994;22.878;2023-01-28T08:17:56;101006.88;;;2.97;78.53
6567;BME280;3317;43.994;22.878;2023-01-28T08:20:24;100982.03;;;2.80;78.52
6567;BME280;3317;43.994;22.878;2023-01-28T08:22:53;101007.91;;;2.94;78.85
6567;BME280;3317;43.994;22.878;2023-01-28T08:25:29;101002.56;;;2.94;78.77
6567;BME280;3317;43.994;22.878;2023-01-28T08:27:56;100999.88;;;2.94;78.90
6567;BME280;3317;43.994;22.878;2023-01-28T08:30:23;101007.16;;;2.92;79.07
6567;BME280;3317;43.994;22.878;2023-01-28T08:32:50;101013.56;;;2.90;79.09
6567;BME280;3317;43.994;22.878;2023-01-28T08:35:17;101022.47;;;2.90;79.35
6567;BME280;3317;43.994;22.878;2023-01-28T08:37:44;101016.16;;;2.91;79.08
6567;BME280;3317;43.994;22.878;2023-01-28T08:40:12;101018.81;;;2.91;79.50
6567;BME280;3317;43.994;22.878;2023-01-28T08:42:39;101021.41;;;2.93;79.38
6567;BME280;3317;43.994;22.878;2023-01-28T08:45:07;101025.69;;;2.95;79.28
6567;BME280;3317;43.994;22.878;2023-01-28T08:47:36;101026.44;;;2.98;79.42
6567;BME280;3317;43.994;22.878;2023-01-28T08:50:03;101030.28;;;2.93;79.64
6567;BME280;3317;43.994;22.878;2023-01-28T08:52:30;101039.19;;;2.94;79.66
6567;BME280;3317;43.994;22.878;2023-01-28T08:54:57;101033.94;;;2.92;79.82
6567;BME280;3317;43.994;22.878;2023-01-28T08:57:25;101039.19;;;2.94;80.00
6567;BME280;3317;43.994;22.878;2023-01-28T08:59:52;101039.19;;;2.94;79.91
6567;BME280;3317;43.994;22.878;2023-01-28T09:02:19;101037.28;;;2.96;80.05
6567;BME280;3317;43.994;22.878;2023-01-28T09:04:46;101046.94;;;2.99;79.95
6567;BME280;3317;43.994;22.878;2023-01-28T09:07:13;101044.34;;;2.97;80.42
6567;BME280;3317;43.994;22.878;2023-01-28T09:09:39;101040.72;;;2.98;80.35
6567;BME280;3317;43.994;22.878;2023-01-28T09:12:06;101040.81;;;3.11;83.21
6567;BME280;3317;43.994;22.878;2023-01-28T09:14:36;101044.25;;;3.13;83.16
6567;BME280;3317;43.994;22.878;2023-01-28T09:17:04;101039.63;;;3.30;86.86
6567;BME280;3317;43.994;22.878;2023-01-28T09:19:31;101041.31;;;3.31;85.42
6567;BME280;3317;43.994;22.878;2023-01-28T09:21:58;101038.84;;;3.28;84.29
6567;BME280;3317;43.994;22.878;2023-01-28T09:24:25;101048.59;;;3.29;83.08
6567;BME280;3317;43.994;22.878;2023-01-28T09:26:52;101047.72;;;3.28;81.78
6567;BME280;3317;43.994;22.878;2023-01-28T09:29:18;101042.09;;;3.33;81.12
6567;BME280;3317;43.994;22.878;2023-01-28T09:31:47;101048.59;;;3.29;80.82
6567;BME280;3317;43.994;22.878;2023-01-28T09:34:14;101008.28;;;3.03;80.73
6567;BME280;3317;43.994;22.878;2023-01-28T09:36:40;101044.97;;;3.30;80.97
6567;BME280;3317;43.994;22.878;2023-01-28T09:39:08;101045.19;;;3.27;80.89
6567;BME280;3317;43.994;22.878;2023-01-28T09:41:43;101031.59;;;3.15;81.48
6567;BME280;3317;43.994;22.878;2023-01-28T09:44:28;101041.31;;;3.31;81.31
6567;BME280;3317;43.994;22.878;2023-01-28T09:47:01;101037.03;;;3.28;81.86
6567;BME280;3317;43.994;22.878;2023-01-28T09:49:34;101040.75;;;3.40;82.12
6567;BME280;3317;43.994;22.878;2023-01-28T09:52:03;101043.50;;;3.38;82.29
6567;BME280;3317;43.994;22.878;2023-01-28T09:54:34;101035.09;;;3.45;81.59
6567;BME280;3317;43.994;22.878;2023-01-28T09:57:17;101037.47;;;3.35;81.32
6567;BME280;3317;43.994;22.878;2023-01-28T09:59:46;101035.69;;;3.35;81.41
6567;BME280;3317;43.994;22.878;2023-01-28T10:02:36;101029.56;;;3.33;82.53
6567;BME280;3317;43.994;22.878;2023-01-28T10:05:16;101023.34;;;3.33;81.97
6567;BME280;3317;43.994;22.878;2023-01-28T10:07:54;101022.94;;;3.39;83.04
6567;BME280;3317;43.994;22.878;2023-01-28T10:10:26;101000.78;;;3.22;82.26
6567;BME280;3317;43.994;22.878;2023-01-28T10:13:16;101021.41;;;3.35;81.59
6567;BME280;3317;43.994;22.878;2023-01-28T10:15:53;101021.31;;;3.36;80.79
6567;BME280;3317;43.994;22.878;2023-01-28T10:18:33;101013.22;;;3.23;80.54
6567;BME280;3317;43.994;22.878;2023-01-28T10:21:06;101017.50;;;3.26;80.67
6567;BME280;3317;43.994;22.878;2023-01-28T10:23:40;101021.13;;;3.40;80.20
6567;BME280;3317;43.994;22.878;2023-01-28T10:26:20;101021.31;;;3.36;80.17
6567;BME280;3317;43.994;22.878;2023-01-28T10:28:52;101018.72;;;3.35;80.62
6567;BME280;3317;43.994;22.878;2023-01-28T10:31:21;101017.59;;;3.39;80.08
6567;BME280;3317;43.994;22.878;2023-01-28T10:33:50;101022.66;;;3.29;80.52
6567;BME280;3317;43.994;22.878;2023-01-28T10:36:16;101020.78;;;3.31;80.20
6567;BME280;3317;43.994;22.878;2023-01-28T10:38:44;101025.50;;;3.41;80.52
6567;BME280;3317;43.994;22.878;2023-01-28T10:41:16;101021.03;;;3.41;80.11
6567;BME280;3317;43.994;22.878;2023-01-28T10:43:46;101019.69;;;3.34;80.40
6567;BME280;3317;43.994;22.878;2023-01-28T10:46:17;101023.78;;;3.40;80.49
6567;BME280;3317;43.994;22.878;2023-01-28T10:48:47;101022.94;;;3.39;80.02
6567;BME280;3317;43.994;22.878;2023-01-28T10:51:29;101024.66;;;3.40;79.85
6567;BME280;3317;43.994;22.878;2023-01-28T10:53:56;101017.47;;;3.41;79.98
6567;BME280;3317;43.994;22.878;2023-01-28T10:56:25;101028.31;;;3.39;79.63
6567;BME280;3317;43.994;22.878;2023-01-28T10:58:56;101022.28;;;3.35;79.56
6567;BME280;3317;43.994;22.878;2023-01-28T11:01:25;101023.13;;;3.36;79.53
6567;BME280;3317;43.994;22.878;2023-01-28T11:04:03;101013.06;;;3.40;79.56
6567;BME280;3317;43.994;22.878;2023-01-28T11:06:33;101015.97;;;3.36;79.55
6567;BME280;3317;43.994;22.878;2023-01-28T11:09:00;101020.91;;;3.43;79.31
6567;BME280;3317;43.994;22.878;2023-01-28T11:11:27;101015.47;;;3.44;79.32
6567;BME280;3317;43.994;22.878;2023-01-28T11:13:55;101016.34;;;3.45;79.29
6567;BME280;3317;43.994;22.878;2023-01-28T11:16:23;100989.69;;;3.29;79.49
6567;BME280;3317;43.994;22.878;2023-01-28T11:18:53;101015.66;;;3.41;79.61
6567;BME280;3317;43.994;22.878;2023-01-28T11:21:24;101012.78;;;3.44;79.60
6567;BME280;3317;43.994;22.878;2023-01-28T11:23:55;101016.34;;;3.45;79.06
6567;BME280;3317;43.994;22.878;2023-01-28T11:26:26;101019.09;;;3.43;79.40
6567;BME280;3317;43.994;22.878;2023-01-28T11:28:54;101008.38;;;3.43;78.91
6567;BME280;3317;43.994;22.878;2023-01-28T11:31:22;101010.31;;;3.41;79.47
6567;BME280;3317;43.994;22.878;2023-01-28T11:33:51;101015.25;;;3.47;79.33
6567;BME280;3317;43.994;22.878;2023-01-28T11:36:22;101005.19;;;3.51;79.04
6567;BME280;3317;43.994;22.878;2023-01-28T11:38:53;101012.56;;;3.47;79.17
6567;BME280;3317;43.994;22.878;2023-01-28T11:41:26;101014.41;;;3.47;79.62
6567;BME280;3317;43.994;22.878;2023-01-28T11:43:54;101006.25;;;3.48;79.18
6567;BME280;3317;43.994;22.878;2023-01-28T11:46:36;101009.88;;;3.47;79.46
6567;BME280;3317;43.994;22.878;2023-01-28T11:49:11;101010.63;;;3.49;79.36
6567;BME280;3317;43.994;22.878;2023-01-28T11:51:45;101007.22;;;3.47;79.61
6567;BME280;3317;43.994;22.878;2023-01-28T11:54:27;101013.22;;;3.51;79.21
6567;BME280;3317;43.994;22.878;2023-01-28T11:57:10;101014.41;;;3.47;79.27
6567;BME280;3317;43.994;22.878;2023-01-28T11:59:53;101010.56;;;3.51;78.98
6567;BME280;3317;43.994;22.878;2023-01-28T12:02:46;101011.59;;;3.48;79.25
6567;BME280;3317;43.994;22.878;2023-01-28T12:05:29;101011.81;;;3.45;79.28
6567;BME280;3317;43.994;22.878;2023-01-28T12:08:06;101009.03;;;3.47;79.10
6567;BME280;3317;43.994;22.878;2023-01-28T12:10:45;101008.75;;;3.51;78.84
6567;BME280;3317;43.994;22.878;2023-01-28T12:13:25;101005.56;;;3.59;82.73
6567;BME280;3317;43.994;22.878;2023-01-28T12:16:16;101011.59;;;3.63;82.40
6567;BME280;3317;43.994;22.878;2023-01-28T12:22:06;101002.88;;;3.59;80.12
6567;BME280;3317;43.994;22.878;2023-01-28T12:24:48;100987.03;;;3.42;79.63
6567;BME280;3317;43.994;22.878;2023-01-28T12:27:32;100993.63;;;3.50;79.46
6567;BME280;3317;43.994;22.878;2023-01-28T12:30:07;101011.97;;;3.57;79.07
6567;BME280;3317;43.994;22.878;2023-01-28T12:32:50;101005.78;;;3.56;79.10
6567;BME280;3317;43.994;22.878;2023-01-28T12:35:28;101003.09;;;3.56;78.97
6567;BME280;3317;43.994;22.878;2023-01-28T12:38:06;101002.97;;;3.58;78.70
6567;BME280;3317;43.994;22.878;2023-01-28T12:40:45;101015.53;;;3.57;78.62
6567;BME280;3317;43.994;22.878;2023-01-28T12:43:19;101008.25;;;3.59;79.07
6567;BME280;3317;43.994;22.878;2023-01-28T12:45:52;101010.25;;;3.56;78.95
6567;BME280;3317;43.994;22.878;2023-01-28T12:48:26;101001.09;;;3.45;79.19
6567;BME280;3317;43.994;22.878;2023-01-28T12:51:01;101005.66;;;3.58;78.78
6567;BME280;3317;43.994;22.878;2023-01-28T12:53:35;101015.63;;;3.56;79.12
6567;BME280;3317;43.994;22.878;2023-01-28T12:56:08;101005.84;;;3.55;79.04
6567;BME280;3317;43.994;22.878;2023-01-28T12:58:46;101011.22;;;3.55;78.87
6567;BME280;3317;43.994;22.878;2023-01-28T13:01:18;101016.56;;;3.55;79.22
6567;BME280;3317;43.994;22.878;2023-01-28T13:03:52;101021.94;;;3.55;79.08
6567;BME280;3317;43.994;22.878;2023-01-28T13:06:26;101014.94;;;3.52;79.15
6567;BME280;3317;43.994;22.878;2023-01-28T13:08:58;101015.81;;;3.52;79.24
6567;BME280;3317;43.994;22.878;2023-01-28T13:11:31;101023.44;;;3.59;79.45
6567;BME280;3317;43.994;22.878;2023-01-28T13:14:01;101026.03;;;3.60;79.31
6567;BME280;3317;43.994;22.878;2023-01-28T13:16:29;101033.97;;;3.62;79.13
6567;BME280;3317;43.994;22.878;2023-01-28T13:19:05;101041.38;;;3.58;79.58
6567;BME280;3317;43.994;22.878;2023-01-28T13:21:34;101038.69;;;3.58;79.42
6567;BME280;3317;43.994;22.878;2023-01-28T13:24:18;101039.13;;;3.65;79.33
6567;BME280;3317;43.994;22.878;2023-01-28T13:26:50;101045.34;;;3.65;79.46
6567;BME280;3317;43.994;22.878;2023-01-28T13:29:27;101039.22;;;3.63;79.32
6567;BME280;3317;43.994;22.878;2023-01-28T13:31:56;101040.84;;;3.66;79.49
6567;BME280;3317;43.994;22.878;2023-01-28T13:34:33;101039.78;;;3.69;79.60